createdAt,value
2017-04-09T00:00:01.409Z,9.42
2017-04-09T00:00:05.728Z,9.41
2017-04-09T00:00:10.044Z,9.42
2017-04-09T00:00:14.469Z,9.42
2017-04-09T00:00:18.912Z,9.43
2017-04-09T00:00:23.340Z,9.41
2017-04-09T00:00:27.766Z,9.42
2017-04-09T00:00:32.196Z,9.42
2017-04-09T00:00:36.644Z,9.42
2017-04-09T00:00:41.070Z,9.43
2017-04-09T00:00:45.503Z,9.42
2017-04-09T00:00:49.943Z,9.42
2017-04-09T00:00:54.374Z,9.43
2017-04-09T00:00:58.803Z,9.42
2017-04-09T00:01:03.379Z,9.42
2017-04-09T00:01:07.809Z,9.42
2017-04-09T00:01:12.117Z,9.43
2017-04-09T00:01:16.423Z,9.42
2017-04-09T00:01:20.857Z,9.42
2017-04-09T00:01:25.290Z,9.43
2017-04-09T00:01:29.726Z,9.42
2017-04-09T00:01:34.146Z,9.42
2017-04-09T00:01:38.573Z,9.43
2017-04-09T00:01:43.010Z,9.42
2017-04-09T00:01:47.322Z,9.42
2017-04-09T00:01:51.742Z,9.42
2017-04-09T00:01:56.168Z,9.43
2017-04-09T00:02:00.603Z,9.43
2017-04-09T00:02:05.169Z,9.42
2017-04-09T00:02:09.651Z,9.42
2017-04-09T00:02:13.883Z,9.42
2017-04-09T00:02:18.307Z,9.43
2017-04-09T00:02:22.740Z,9.42
2017-04-09T00:02:27.053Z,9.41
2017-04-09T00:02:31.487Z,9.41
2017-04-09T00:02:35.680Z,9.42
2017-04-09T00:02:40.112Z,9.41
2017-04-09T00:02:44.550Z,9.41
2017-04-09T00:02:48.993Z,9.41
2017-04-09T00:02:53.301Z,9.41
2017-04-09T00:02:57.740Z,9.42
2017-04-09T00:03:02.178Z,9.42
2017-04-09T00:03:06.492Z,9.41
2017-04-09T00:03:10.918Z,9.42
2017-04-09T00:03:15.349Z,9.42
2017-04-09T00:03:19.798Z,9.41
2017-04-09T00:03:24.230Z,9.42
2017-04-09T00:03:28.659Z,9.41
2017-04-09T00:03:32.974Z,9.41
2017-04-09T00:03:37.405Z,9.41
2017-04-09T00:03:41.843Z,9.41
2017-04-09T00:03:46.286Z,9.41
2017-04-09T00:03:50.719Z,9.41
2017-04-09T00:03:55.045Z,9.41
2017-04-09T00:03:59.471Z,9.4
2017-04-09T00:04:03.710Z,9.4
2017-04-09T00:04:08.146Z,9.41
2017-04-09T00:04:12.460Z,9.41
2017-04-09T00:04:16.892Z,9.41
2017-04-09T00:04:21.320Z,9.41
2017-04-09T00:04:25.749Z,9.41
2017-04-09T00:04:30.205Z,9.4
2017-04-09T00:04:34.510Z,9.41
2017-04-09T00:04:38.816Z,9.4
2017-04-09T00:04:43.248Z,9.4
2017-04-09T00:04:47.678Z,9.4
2017-04-09T00:04:51.984Z,9.4
2017-04-09T00:04:56.425Z,9.4
2017-04-09T00:05:00.861Z,9.4
2017-04-09T00:05:05.054Z,9.41
2017-04-09T00:05:09.487Z,9.4
2017-04-09T00:05:13.923Z,9.4
2017-04-09T00:05:18.247Z,9.4
2017-04-09T00:05:22.567Z,9.4
2017-04-09T00:05:26.992Z,9.4
2017-04-09T00:05:31.187Z,9.4
2017-04-09T00:05:35.499Z,9.4
2017-04-09T00:05:39.936Z,9.39
2017-04-09T00:05:44.248Z,9.4
2017-04-09T00:05:48.676Z,9.39
2017-04-09T00:05:53.109Z,9.39
2017-04-09T00:05:57.427Z,9.39
2017-04-09T00:06:01.852Z,9.4
2017-04-09T00:06:06.171Z,9.39
2017-04-09T00:06:10.375Z,9.4
2017-04-09T00:06:14.689Z,9.38
2017-04-09T00:06:19.002Z,9.39
2017-04-09T00:06:23.430Z,9.39
2017-04-09T00:06:27.862Z,9.4
2017-04-09T00:06:32.291Z,9.39
2017-04-09T00:06:36.607Z,9.39
2017-04-09T00:06:40.919Z,9.39
2017-04-09T00:06:45.233Z,9.39
2017-04-09T00:06:49.670Z,9.38
2017-04-09T00:06:53.980Z,9.38
2017-04-09T00:06:58.187Z,9.38
2017-04-09T00:07:02.624Z,9.38
2017-04-09T00:07:07.057Z,9.38
2017-04-09T00:07:11.493Z,9.38
2017-04-09T00:07:15.816Z,9.38
2017-04-09T00:07:20.253Z,9.38
2017-04-09T00:07:24.689Z,9.38
2017-04-09T00:07:29.115Z,9.37
2017-04-09T00:07:33.320Z,9.38
2017-04-09T00:07:37.546Z,9.38
2017-04-09T00:07:41.630Z,9.37
2017-04-09T00:07:46.061Z,9.37
2017-04-09T00:07:50.395Z,9.36
2017-04-09T00:07:54.714Z,9.37
2017-04-09T00:07:58.917Z,9.37
2017-04-09T00:08:03.363Z,9.36
2017-04-09T00:08:07.801Z,9.37
2017-04-09T00:08:12.247Z,9.36
2017-04-09T00:08:16.339Z,9.36
2017-04-09T00:08:20.655Z,9.36
2017-04-09T00:08:25.134Z,9.35
2017-04-09T00:08:29.565Z,9.37
2017-04-09T00:08:33.771Z,9.36
2017-04-09T00:08:38.208Z,9.36
2017-04-09T00:08:42.649Z,9.36
2017-04-09T00:08:47.075Z,9.35
2017-04-09T00:08:51.388Z,9.35
2017-04-09T00:08:55.708Z,9.35
2017-04-09T00:08:59.791Z,9.35
2017-04-09T00:09:04.272Z,9.35
2017-04-09T00:09:08.588Z,9.35
2017-04-09T00:09:13.027Z,9.34
2017-04-09T00:09:17.458Z,9.34
2017-04-09T00:09:21.779Z,9.34
2017-04-09T00:09:26.096Z,9.35
2017-04-09T00:09:30.077Z,9.35
2017-04-09T00:09:34.392Z,9.34
2017-04-09T00:09:38.595Z,9.34
2017-04-09T00:09:43.027Z,9.34
2017-04-09T00:09:47.465Z,9.34
2017-04-09T00:09:51.667Z,9.34
2017-04-09T00:09:56.096Z,9.33
2017-04-09T00:10:00.292Z,9.33
2017-04-09T00:10:04.818Z,9.34
2017-04-09T00:10:08.892Z,9.33
2017-04-09T00:10:13.318Z,9.33
2017-04-09T00:10:17.401Z,9.33
2017-04-09T00:10:21.874Z,9.32
2017-04-09T00:10:26.301Z,9.34
2017-04-09T00:10:30.737Z,9.33
2017-04-09T00:10:35.070Z,9.31
2017-04-09T00:10:39.545Z,9.32
2017-04-09T00:10:43.746Z,9.32
2017-04-09T00:10:48.060Z,9.32
2017-04-09T00:10:52.382Z,9.32
2017-04-09T00:10:56.579Z,9.32
2017-04-09T00:11:00.770Z,9.32
2017-04-09T00:11:05.246Z,9.31
2017-04-09T00:11:09.681Z,9.31
2017-04-09T00:11:14.101Z,9.31
2017-04-09T00:11:18.409Z,9.31
2017-04-09T00:11:22.837Z,9.3
2017-04-09T00:11:27.299Z,9.3
2017-04-09T00:11:31.724Z,9.31
2017-04-09T00:11:36.151Z,9.3
2017-04-09T00:11:40.462Z,9.3
2017-04-09T00:11:44.933Z,9.29
2017-04-09T00:11:49.360Z,9.3
2017-04-09T00:11:53.781Z,9.29
2017-04-09T00:11:58.094Z,9.29
2017-04-09T00:12:02.574Z,9.29
2017-04-09T00:12:06.762Z,9.28
2017-04-09T00:12:11.185Z,9.29
2017-04-09T00:12:15.496Z,9.28
2017-04-09T00:12:19.811Z,9.28
2017-04-09T00:12:24.236Z,9.28
2017-04-09T00:12:28.664Z,9.28
2017-04-09T00:12:33.097Z,9.27
2017-04-09T00:12:37.521Z,9.28
2017-04-09T00:12:41.952Z,9.27
2017-04-09T00:12:46.278Z,9.27
2017-04-09T00:12:50.601Z,9.26
2017-04-09T00:12:55.047Z,9.27
2017-04-09T00:12:59.474Z,9.27
2017-04-09T00:13:04.247Z,9.26
2017-04-09T00:13:08.587Z,9.26
2017-04-09T00:13:13.018Z,9.27
2017-04-09T00:13:17.438Z,9.26
2017-04-09T00:13:21.889Z,9.26
2017-04-09T00:13:26.320Z,9.26
2017-04-09T00:13:30.747Z,9.25
2017-04-09T00:13:35.171Z,9.26
2017-04-09T00:13:39.480Z,9.25
2017-04-09T00:13:43.937Z,9.24
2017-04-09T00:13:48.261Z,9.24
2017-04-09T00:13:52.700Z,9.25
2017-04-09T00:13:57.130Z,9.24
2017-04-09T00:14:01.558Z,9.25
2017-04-09T00:14:06.335Z,9.23
2017-04-09T00:14:10.528Z,9.24
2017-04-09T00:14:14.955Z,9.23
2017-04-09T00:14:19.382Z,9.23
2017-04-09T00:14:23.695Z,9.23
2017-04-09T00:14:28.124Z,9.23
2017-04-09T00:14:32.562Z,9.22
2017-04-09T00:14:37.000Z,9.23
2017-04-09T00:14:41.424Z,9.22
2017-04-09T00:14:45.734Z,9.22
2017-04-09T00:14:50.159Z,9.21
2017-04-09T00:14:54.592Z,9.21
2017-04-09T00:14:58.903Z,9.2
2017-04-09T00:15:03.367Z,9.21
2017-04-09T00:15:07.795Z,9.21
2017-04-09T00:15:12.108Z,9.22
2017-04-09T00:15:16.531Z,9.21
2017-04-09T00:15:20.974Z,9.2
2017-04-09T00:15:25.398Z,9.21
2017-04-09T00:15:29.823Z,9.2
2017-04-09T00:15:34.264Z,9.2
2017-04-09T00:15:38.701Z,9.2
2017-04-09T00:15:42.896Z,9.19
2017-04-09T00:15:47.321Z,9.19
2017-04-09T00:15:51.744Z,9.19
2017-04-09T00:15:56.174Z,9.19
2017-04-09T00:16:00.602Z,9.19
2017-04-09T00:16:05.283Z,9.19
2017-04-09T00:16:09.712Z,9.19
2017-04-09T00:16:13.911Z,9.17
2017-04-09T00:16:18.343Z,9.19
2017-04-09T00:16:22.649Z,9.18
2017-04-09T00:16:27.076Z,9.18
2017-04-09T00:16:31.500Z,9.18
2017-04-09T00:16:35.807Z,9.17
2017-04-09T00:16:40.230Z,9.18
2017-04-09T00:16:44.660Z,9.17
2017-04-09T00:16:49.089Z,9.18
2017-04-09T00:16:53.518Z,9.17
2017-04-09T00:16:57.830Z,9.16
2017-04-09T00:17:02.146Z,9.17
2017-04-09T00:17:06.574Z,9.17
2017-04-09T00:17:10.998Z,9.16
2017-04-09T00:17:15.300Z,9.16
2017-04-09T00:17:19.760Z,9.16
2017-04-09T00:17:24.077Z,9.16
2017-04-09T00:17:28.504Z,9.16
2017-04-09T00:17:32.817Z,9.15
2017-04-09T00:17:37.015Z,9.15
2017-04-09T00:17:41.438Z,9.15
2017-04-09T00:17:45.743Z,9.15
2017-04-09T00:17:50.173Z,9.14
2017-04-09T00:17:54.602Z,9.14
2017-04-09T00:17:59.030Z,9.15
2017-04-09T00:18:03.753Z,9.14
2017-04-09T00:18:07.945Z,9.14
2017-04-09T00:18:12.374Z,9.14
2017-04-09T00:18:16.685Z,9.14
2017-04-09T00:18:21.105Z,9.13
2017-04-09T00:18:25.536Z,9.14
2017-04-09T00:18:29.842Z,9.13
2017-04-09T00:18:34.042Z,9.13
2017-04-09T00:18:38.464Z,9.12
2017-04-09T00:18:42.895Z,9.13
2017-04-09T00:18:47.333Z,9.11
2017-04-09T00:18:51.754Z,9.12
2017-04-09T00:18:56.182Z,9.13
2017-04-09T00:19:00.615Z,9.12
2017-04-09T00:19:05.346Z,9.11
2017-04-09T00:19:09.777Z,9.11
2017-04-09T00:19:14.199Z,9.11
2017-04-09T00:19:18.629Z,9.11
2017-04-09T00:19:22.974Z,9.11
2017-04-09T00:19:27.163Z,9.11
2017-04-09T00:19:31.596Z,9.11
2017-04-09T00:19:36.025Z,9.1
2017-04-09T00:19:40.456Z,9.1
2017-04-09T00:19:44.876Z,9.1
2017-04-09T00:19:49.184Z,9.1
2017-04-09T00:19:53.615Z,9.1
2017-04-09T00:19:58.037Z,9.09
2017-04-09T00:20:02.716Z,9.1
2017-04-09T00:20:07.029Z,9.09
2017-04-09T00:20:11.496Z,9.08
2017-04-09T00:20:15.803Z,9.09
2017-04-09T00:20:20.109Z,9.08
2017-04-09T00:20:24.543Z,9.09
2017-04-09T00:20:28.883Z,9.08
2017-04-09T00:20:33.306Z,9.08
2017-04-09T00:20:37.740Z,9.07
2017-04-09T00:20:42.172Z,9.07
2017-04-09T00:20:46.524Z,9.07
2017-04-09T00:20:50.948Z,9.08
2017-04-09T00:20:55.369Z,9.07
2017-04-09T00:20:59.795Z,9.07
2017-04-09T00:21:04.518Z,9.06
2017-04-09T00:21:08.945Z,9.06
2017-04-09T00:21:13.374Z,9.05
2017-04-09T00:21:17.683Z,9.06
2017-04-09T00:21:21.884Z,9.05
2017-04-09T00:21:26.310Z,9.06
2017-04-09T00:21:30.613Z,9.05
2017-04-09T00:21:35.041Z,9.05
2017-04-09T00:21:39.463Z,9.05
2017-04-09T00:21:43.767Z,9.05
2017-04-09T00:21:48.195Z,9.05
2017-04-09T00:21:52.623Z,9.04
2017-04-09T00:21:57.048Z,9.04
2017-04-09T00:22:01.471Z,9.04
2017-04-09T00:22:05.898Z,9.04
2017-04-09T00:22:10.098Z,9.04
2017-04-09T00:22:14.409Z,9.04
2017-04-09T00:22:18.595Z,9.04
2017-04-09T00:22:23.021Z,9.03
2017-04-09T00:22:27.374Z,9.03
2017-04-09T00:22:31.691Z,9.03
2017-04-09T00:22:36.115Z,9.02
2017-04-09T00:22:40.535Z,9.03
2017-04-09T00:22:44.843Z,9.03
2017-04-09T00:22:49.261Z,9.02
2017-04-09T00:22:53.683Z,9.02
2017-04-09T00:22:58.106Z,9.02
2017-04-09T00:23:02.833Z,9.02
2017-04-09T00:23:07.256Z,9.01
2017-04-09T00:23:11.567Z,9.01
2017-04-09T00:23:15.993Z,9.01
2017-04-09T00:23:20.308Z,9.01
2017-04-09T00:23:24.725Z,9.01
2017-04-09T00:23:28.915Z,9.01
2017-04-09T00:23:33.344Z,9.01
2017-04-09T00:23:37.780Z,8.99
2017-04-09T00:23:42.200Z,9
2017-04-09T00:23:46.621Z,9
2017-04-09T00:23:51.049Z,9
2017-04-09T00:23:55.474Z,8.99
2017-04-09T00:23:59.896Z,8.99
2017-04-09T00:24:04.668Z,9
2017-04-09T00:24:08.975Z,8.98
2017-04-09T00:24:13.192Z,8.98
2017-04-09T00:24:17.497Z,8.98
2017-04-09T00:24:21.808Z,8.98
2017-04-09T00:24:26.235Z,8.99
2017-04-09T00:24:30.692Z,8.98
2017-04-09T00:24:34.999Z,8.98
2017-04-09T00:24:39.310Z,8.98
2017-04-09T00:24:43.748Z,8.98
2017-04-09T00:24:48.053Z,8.98
2017-04-09T00:24:52.479Z,8.98
2017-04-09T00:24:56.900Z,8.97
2017-04-09T00:25:01.326Z,8.97
2017-04-09T00:25:05.670Z,8.96
2017-04-09T00:25:09.857Z,8.97
2017-04-09T00:25:14.277Z,8.96
2017-04-09T00:25:18.708Z,8.96
2017-04-09T00:25:23.020Z,8.95
2017-04-09T00:25:27.445Z,8.95
2017-04-09T00:25:31.872Z,8.95
2017-04-09T00:25:36.310Z,8.95
2017-04-09T00:25:40.772Z,8.95
2017-04-09T00:25:45.078Z,8.95
2017-04-09T00:25:49.499Z,8.94
2017-04-09T00:25:53.933Z,8.94
2017-04-09T00:25:58.355Z,8.93
2017-04-09T00:26:02.781Z,8.93
2017-04-09T00:26:07.091Z,8.93
2017-04-09T00:26:11.284Z,8.93
2017-04-09T00:26:15.707Z,8.93
2017-04-09T00:26:20.125Z,8.93
2017-04-09T00:26:24.451Z,8.93
2017-04-09T00:26:28.648Z,8.92
2017-04-09T00:26:33.072Z,8.92
2017-04-09T00:26:37.514Z,8.92
2017-04-09T00:26:41.942Z,8.92
2017-04-09T00:26:46.371Z,8.92
2017-04-09T00:26:50.805Z,8.92
2017-04-09T00:26:55.230Z,8.91
2017-04-09T00:26:59.658Z,8.9
2017-04-09T00:27:03.970Z,8.91
2017-04-09T00:27:08.395Z,8.91
2017-04-09T00:27:12.710Z,8.91
2017-04-09T00:27:17.135Z,8.91
2017-04-09T00:27:21.441Z,8.91
2017-04-09T00:27:25.865Z,8.9
2017-04-09T00:27:30.299Z,8.9
2017-04-09T00:27:34.721Z,8.9
2017-04-09T00:27:39.023Z,8.89
2017-04-09T00:27:43.449Z,8.89
2017-04-09T00:27:47.762Z,8.89
2017-04-09T00:27:52.071Z,8.89
2017-04-09T00:27:56.382Z,8.88
2017-04-09T00:28:00.807Z,8.88
2017-04-09T00:28:05.535Z,8.87
2017-04-09T00:28:09.608Z,8.89
2017-04-09T00:28:13.927Z,8.87
2017-04-09T00:28:18.352Z,8.88
2017-04-09T00:28:22.779Z,8.88
2017-04-09T00:28:27.206Z,8.88
2017-04-09T00:28:31.666Z,8.86
2017-04-09T00:28:36.088Z,8.87
2017-04-09T00:28:40.512Z,8.86
2017-04-09T00:28:44.939Z,8.86
2017-04-09T00:28:49.358Z,8.86
2017-04-09T00:28:53.781Z,8.86
2017-04-09T00:28:58.201Z,8.85
2017-04-09T00:29:02.396Z,8.86
2017-04-09T00:29:06.830Z,8.84
2017-04-09T00:29:11.253Z,8.85
2017-04-09T00:29:15.560Z,8.86
2017-04-09T00:29:19.988Z,8.84
2017-04-09T00:29:24.420Z,8.84
2017-04-09T00:29:28.850Z,8.84
2017-04-09T00:29:33.158Z,8.84
2017-04-09T00:29:37.585Z,8.84
2017-04-09T00:29:42.006Z,8.84
2017-04-09T00:29:46.310Z,8.84
2017-04-09T00:29:50.737Z,8.84
2017-04-09T00:29:55.187Z,8.83
2017-04-09T00:29:59.381Z,8.84
2017-04-09T00:30:03.944Z,8.83
2017-04-09T00:30:08.255Z,8.82
2017-04-09T00:30:12.693Z,8.82
2017-04-09T00:30:17.119Z,8.82
2017-04-09T00:30:21.551Z,8.82
2017-04-09T00:30:25.980Z,8.82
2017-04-09T00:30:30.410Z,8.82
2017-04-09T00:30:34.846Z,8.81
2017-04-09T00:30:39.309Z,8.81
2017-04-09T00:30:43.735Z,8.81
2017-04-09T00:30:48.046Z,8.8
2017-04-09T00:30:52.357Z,8.81
2017-04-09T00:30:56.553Z,8.8
2017-04-09T00:31:00.913Z,8.81
2017-04-09T00:31:05.347Z,8.79
2017-04-09T00:31:09.770Z,8.8
2017-04-09T00:31:14.242Z,8.79
2017-04-09T00:31:18.670Z,8.8
2017-04-09T00:31:23.095Z,8.79
2017-04-09T00:31:27.526Z,8.79
2017-04-09T00:31:31.996Z,8.79
2017-04-09T00:31:36.429Z,8.79
2017-04-09T00:31:40.738Z,8.79
2017-04-09T00:31:45.172Z,8.78
2017-04-09T00:31:49.488Z,8.79
2017-04-09T00:31:53.795Z,8.79
2017-04-09T00:31:58.227Z,8.78
2017-04-09T00:32:02.657Z,8.77
2017-04-09T00:32:07.083Z,8.77
2017-04-09T00:32:11.392Z,8.77
2017-04-09T00:32:15.875Z,8.77
2017-04-09T00:32:20.303Z,8.76
2017-04-09T00:32:24.732Z,8.76
2017-04-09T00:32:29.166Z,8.77
2017-04-09T00:32:33.522Z,8.76
2017-04-09T00:32:37.950Z,8.76
2017-04-09T00:32:42.387Z,8.76
2017-04-09T00:32:46.825Z,8.76
2017-04-09T00:32:51.262Z,8.75
2017-04-09T00:32:55.581Z,8.76
2017-04-09T00:32:59.891Z,8.75
2017-04-09T00:33:04.325Z,8.75
2017-04-09T00:33:08.763Z,8.75
2017-04-09T00:33:13.191Z,8.75
2017-04-09T00:33:17.497Z,8.74
2017-04-09T00:33:21.929Z,8.74
2017-04-09T00:33:26.384Z,8.74
2017-04-09T00:33:30.696Z,8.74
2017-04-09T00:33:35.124Z,8.74
2017-04-09T00:33:39.560Z,8.74
2017-04-09T00:33:43.878Z,8.73
2017-04-09T00:33:48.076Z,8.74
2017-04-09T00:33:52.503Z,8.74
2017-04-09T00:33:56.928Z,8.73
2017-04-09T00:34:01.362Z,8.74
2017-04-09T00:34:06.145Z,8.72
2017-04-09T00:34:10.456Z,8.73
2017-04-09T00:34:14.655Z,8.72
2017-04-09T00:34:19.097Z,8.72
2017-04-09T00:34:23.530Z,8.72
2017-04-09T00:34:27.964Z,8.72
2017-04-09T00:34:32.391Z,8.72
2017-04-09T00:34:36.867Z,8.72
2017-04-09T00:34:41.294Z,8.72
2017-04-09T00:34:45.489Z,8.72
2017-04-09T00:34:49.923Z,8.72
2017-04-09T00:34:54.358Z,8.72
2017-04-09T00:34:58.790Z,8.71
2017-04-09T00:35:03.464Z,8.72
2017-04-09T00:35:07.774Z,8.71
2017-04-09T00:35:12.202Z,8.7
2017-04-09T00:35:16.633Z,8.7
2017-04-09T00:35:20.947Z,8.7
2017-04-09T00:35:25.377Z,8.7
2017-04-09T00:35:29.684Z,8.7
2017-04-09T00:35:33.987Z,8.7
2017-04-09T00:35:38.419Z,8.7
2017-04-09T00:35:42.727Z,8.69
2017-04-09T00:35:47.034Z,8.7
2017-04-09T00:35:51.460Z,8.69
2017-04-09T00:35:55.899Z,8.69
2017-04-09T00:36:00.357Z,8.69
2017-04-09T00:36:04.783Z,8.69
2017-04-09T00:36:09.211Z,8.69
2017-04-09T00:36:13.646Z,8.69
2017-04-09T00:36:18.082Z,8.69
2017-04-09T00:36:22.504Z,8.69
2017-04-09T00:36:26.925Z,8.68
2017-04-09T00:36:31.354Z,8.69
2017-04-09T00:36:35.563Z,8.69
2017-04-09T00:36:39.871Z,8.68
2017-04-09T00:36:44.294Z,8.67
2017-04-09T00:36:48.729Z,8.68
2017-04-09T00:36:53.150Z,8.68
2017-04-09T00:36:57.575Z,8.67
2017-04-09T00:37:02.003Z,8.67
2017-04-09T00:37:06.436Z,8.66
2017-04-09T00:37:10.856Z,8.67
2017-04-09T00:37:15.279Z,8.67
2017-04-09T00:37:19.592Z,8.67
2017-04-09T00:37:24.018Z,8.67
2017-04-09T00:37:28.439Z,8.67
2017-04-09T00:37:32.744Z,8.67
2017-04-09T00:37:36.954Z,8.65
2017-04-09T00:37:41.386Z,8.66
2017-04-09T00:37:45.818Z,8.66
2017-04-09T00:37:50.248Z,8.66
2017-04-09T00:37:54.675Z,8.67
2017-04-09T00:37:59.098Z,8.66
2017-04-09T00:38:03.519Z,8.66
2017-04-09T00:38:07.836Z,8.66
2017-04-09T00:38:12.269Z,8.65
2017-04-09T00:38:16.585Z,8.65
2017-04-09T00:38:21.012Z,8.66
2017-04-09T00:38:25.316Z,8.66
2017-04-09T00:38:29.747Z,8.65
2017-04-09T00:38:34.171Z,8.65
2017-04-09T00:38:38.593Z,8.66
2017-04-09T00:38:43.010Z,8.66
2017-04-09T00:38:47.444Z,8.65
2017-04-09T00:38:51.902Z,8.65
2017-04-09T00:38:56.327Z,8.65
2017-04-09T00:39:00.766Z,8.66
2017-04-09T00:39:05.198Z,8.64
2017-04-09T00:39:09.630Z,8.65
2017-04-09T00:39:14.070Z,8.65
2017-04-09T00:39:18.505Z,8.65
2017-04-09T00:39:22.835Z,8.65
2017-04-09T00:39:27.143Z,8.65
2017-04-09T00:39:31.456Z,8.64
2017-04-09T00:39:35.897Z,8.65
2017-04-09T00:39:40.207Z,8.65
2017-04-09T00:39:44.640Z,8.65
2017-04-09T00:39:48.956Z,8.65
2017-04-09T00:39:53.271Z,8.64
2017-04-09T00:39:57.731Z,8.64
2017-04-09T00:40:02.153Z,8.65
2017-04-09T00:40:06.580Z,8.63
2017-04-09T00:40:11.010Z,8.64
2017-04-09T00:40:15.435Z,8.64
2017-04-09T00:40:19.857Z,8.63
2017-04-09T00:40:24.159Z,8.64
2017-04-09T00:40:28.589Z,8.65
2017-04-09T00:40:32.773Z,8.64
2017-04-09T00:40:37.081Z,8.64
2017-04-09T00:40:41.512Z,8.64
2017-04-09T00:40:45.940Z,8.63
2017-04-09T00:40:50.365Z,8.64
2017-04-09T00:40:54.786Z,8.64
2017-04-09T00:40:59.213Z,8.63
2017-04-09T00:41:03.641Z,8.64
2017-04-09T00:41:08.062Z,8.63
2017-04-09T00:41:12.484Z,8.63
2017-04-09T00:41:16.910Z,8.64
2017-04-09T00:41:21.254Z,8.64
2017-04-09T00:41:25.555Z,8.64
2017-04-09T00:41:29.862Z,8.64
2017-04-09T00:41:34.287Z,8.63
2017-04-09T00:41:38.712Z,8.63
2017-04-09T00:41:43.141Z,8.62
2017-04-09T00:41:47.446Z,8.64
2017-04-09T00:41:51.869Z,8.63
2017-04-09T00:41:56.294Z,8.63
2017-04-09T00:42:00.720Z,8.63
2017-04-09T00:42:05.154Z,8.63
2017-04-09T00:42:09.584Z,8.63
2017-04-09T00:42:14.007Z,8.62
2017-04-09T00:42:18.430Z,8.63
2017-04-09T00:42:22.869Z,8.62
2017-04-09T00:42:27.205Z,8.62
2017-04-09T00:42:31.630Z,8.63
2017-04-09T00:42:36.055Z,8.62
2017-04-09T00:42:40.499Z,8.63
2017-04-09T00:42:44.923Z,8.62
2017-04-09T00:42:49.343Z,8.63
2017-04-09T00:42:53.770Z,8.63
2017-04-09T00:42:58.192Z,8.63
2017-04-09T00:43:02.548Z,8.63
2017-04-09T00:43:06.970Z,8.63
2017-04-09T00:43:11.401Z,8.63
2017-04-09T00:43:15.708Z,8.62
2017-04-09T00:43:20.128Z,8.62
2017-04-09T00:43:24.439Z,8.63
2017-04-09T00:43:28.862Z,8.62
2017-04-09T00:43:33.283Z,8.62
2017-04-09T00:43:37.715Z,8.62
2017-04-09T00:43:42.145Z,8.61
2017-04-09T00:43:46.567Z,8.62
2017-04-09T00:43:50.988Z,8.62
2017-04-09T00:43:55.417Z,8.62
2017-04-09T00:43:59.838Z,8.62
2017-04-09T00:44:04.563Z,8.61
2017-04-09T00:44:08.988Z,8.62
2017-04-09T00:44:13.185Z,8.61
2017-04-09T00:44:17.610Z,8.61
2017-04-09T00:44:21.912Z,8.61
2017-04-09T00:44:26.338Z,8.61
2017-04-09T00:44:30.647Z,8.61
2017-04-09T00:44:34.955Z,8.61
2017-04-09T00:44:39.385Z,8.61
2017-04-09T00:44:43.803Z,8.61
2017-04-09T00:44:48.225Z,8.61
2017-04-09T00:44:52.659Z,8.61
2017-04-09T00:44:57.078Z,8.61
2017-04-09T00:45:01.759Z,8.61
2017-04-09T00:45:06.203Z,8.61
2017-04-09T00:45:10.627Z,8.61
2017-04-09T00:45:14.932Z,8.61
2017-04-09T00:45:19.359Z,8.6
2017-04-09T00:45:23.782Z,8.61
2017-04-09T00:45:28.206Z,8.61
2017-04-09T00:45:32.633Z,8.6
2017-04-09T00:45:36.950Z,8.61
2017-04-09T00:45:41.419Z,8.6
2017-04-09T00:45:45.838Z,8.61
2017-04-09T00:45:50.258Z,8.61
2017-04-09T00:45:54.689Z,8.61
2017-04-09T00:45:59.117Z,8.61
2017-04-09T00:46:03.539Z,8.61
2017-04-09T00:46:07.843Z,8.61
2017-04-09T00:46:12.159Z,8.61
2017-04-09T00:46:16.346Z,8.6
2017-04-09T00:46:20.768Z,8.6
2017-04-09T00:46:25.198Z,8.61
2017-04-09T00:46:29.620Z,8.6
2017-04-09T00:46:33.927Z,8.61
2017-04-09T00:46:38.350Z,8.6
2017-04-09T00:46:42.781Z,8.61
2017-04-09T00:46:47.228Z,8.6
2017-04-09T00:46:51.655Z,8.61
2017-04-09T00:46:55.972Z,8.61
2017-04-09T00:47:00.392Z,8.62
2017-04-09T00:47:04.699Z,8.6
2017-04-09T00:47:09.132Z,8.6
2017-04-09T00:47:13.330Z,8.61
2017-04-09T00:47:17.754Z,8.6
2017-04-09T00:47:22.174Z,8.61
2017-04-09T00:47:26.611Z,8.61
2017-04-09T00:47:31.066Z,8.59
2017-04-09T00:47:35.492Z,8.6
2017-04-09T00:47:39.912Z,8.6
2017-04-09T00:47:44.341Z,8.6
2017-04-09T00:47:48.802Z,8.6
2017-04-09T00:47:53.228Z,8.61
2017-04-09T00:47:57.649Z,8.61
2017-04-09T00:48:02.079Z,8.6
2017-04-09T00:48:06.295Z,8.6
2017-04-09T00:48:10.723Z,8.61
2017-04-09T00:48:15.145Z,8.61
2017-04-09T00:48:19.576Z,8.61
2017-04-09T00:48:23.995Z,8.61
2017-04-09T00:48:28.424Z,8.61
2017-04-09T00:48:32.858Z,8.6
2017-04-09T00:48:37.174Z,8.61
2017-04-09T00:48:41.606Z,8.61
2017-04-09T00:48:46.023Z,8.61
2017-04-09T00:48:50.443Z,8.61
2017-04-09T00:48:54.878Z,8.61
2017-04-09T00:48:59.299Z,8.61
2017-04-09T00:49:03.718Z,8.61
2017-04-09T00:49:07.916Z,8.6
2017-04-09T00:49:12.346Z,8.6
2017-04-09T00:49:16.420Z,8.61
2017-04-09T00:49:20.846Z,8.61
2017-04-09T00:49:25.161Z,8.61
2017-04-09T00:49:29.593Z,8.61
2017-04-09T00:49:34.028Z,8.6
2017-04-09T00:49:38.450Z,8.6
2017-04-09T00:49:42.763Z,8.61
2017-04-09T00:49:47.194Z,8.61
2017-04-09T00:49:51.616Z,8.61
2017-04-09T00:49:56.041Z,8.6
2017-04-09T00:50:00.359Z,8.61
2017-04-09T00:50:04.786Z,8.61
2017-04-09T00:50:09.220Z,8.61
2017-04-09T00:50:13.537Z,8.62
2017-04-09T00:50:18.005Z,8.62
2017-04-09T00:50:22.424Z,8.62
2017-04-09T00:50:26.859Z,8.61
2017-04-09T00:50:31.301Z,8.61
2017-04-09T00:50:35.729Z,8.61
2017-04-09T00:50:40.035Z,8.61
2017-04-09T00:50:44.466Z,8.61
2017-04-09T00:50:48.890Z,8.61
2017-04-09T00:50:53.327Z,8.62
2017-04-09T00:50:57.398Z,8.61
2017-04-09T00:51:01.959Z,8.62
2017-04-09T00:51:06.395Z,8.61
2017-04-09T00:51:10.834Z,8.62
2017-04-09T00:51:15.137Z,8.62
2017-04-09T00:51:19.561Z,8.62
2017-04-09T00:51:23.884Z,8.61
2017-04-09T00:51:28.311Z,8.62
2017-04-09T00:51:32.613Z,8.62
2017-04-09T00:51:36.922Z,8.62
2017-04-09T00:51:41.349Z,8.62
2017-04-09T00:51:45.774Z,8.62
2017-04-09T00:51:50.199Z,8.62
2017-04-09T00:51:54.501Z,8.62
2017-04-09T00:51:58.817Z,8.62
2017-04-09T00:52:03.239Z,8.62
2017-04-09T00:52:07.548Z,8.61
2017-04-09T00:52:11.971Z,8.62
2017-04-09T00:52:16.411Z,8.62
2017-04-09T00:52:20.837Z,8.62
2017-04-09T00:52:25.271Z,8.62
2017-04-09T00:52:29.709Z,8.62
2017-04-09T00:52:34.154Z,8.62
2017-04-09T00:52:38.582Z,8.62
2017-04-09T00:52:43.013Z,8.62
2017-04-09T00:52:47.463Z,8.62
2017-04-09T00:52:51.790Z,8.63
2017-04-09T00:52:56.218Z,8.63
2017-04-09T00:53:00.651Z,8.63
2017-04-09T00:53:05.090Z,8.62
2017-04-09T00:53:09.552Z,8.63
2017-04-09T00:53:13.866Z,8.62
2017-04-09T00:53:18.289Z,8.63
2017-04-09T00:53:22.730Z,8.62
2017-04-09T00:53:27.154Z,8.63
2017-04-09T00:53:31.574Z,8.62
2017-04-09T00:53:36.006Z,8.63
2017-04-09T00:53:40.443Z,8.63
2017-04-09T00:53:44.795Z,8.63
2017-04-09T00:53:49.117Z,8.63
2017-04-09T00:53:53.549Z,8.63
2017-04-09T00:53:57.981Z,8.63
2017-04-09T00:54:02.412Z,8.63
2017-04-09T00:54:06.727Z,8.63
2017-04-09T00:54:11.162Z,8.63
2017-04-09T00:54:15.605Z,8.63
2017-04-09T00:54:20.041Z,8.63
2017-04-09T00:54:24.478Z,8.63
2017-04-09T00:54:28.912Z,8.64
2017-04-09T00:54:33.345Z,8.63
2017-04-09T00:54:37.772Z,8.63
2017-04-09T00:54:42.197Z,8.63
2017-04-09T00:54:46.626Z,8.64
2017-04-09T00:54:51.060Z,8.63
2017-04-09T00:54:55.489Z,8.63
2017-04-09T00:54:59.923Z,8.63
2017-04-09T00:55:04.337Z,8.64
2017-04-09T00:55:08.764Z,8.63
2017-04-09T00:55:13.187Z,8.63
2017-04-09T00:55:17.490Z,8.63
2017-04-09T00:55:21.915Z,8.64
2017-04-09T00:55:26.368Z,8.64
2017-04-09T00:55:30.795Z,8.62
2017-04-09T00:55:34.985Z,8.63
2017-04-09T00:55:39.426Z,8.63
2017-04-09T00:55:43.851Z,8.63
2017-04-09T00:55:48.042Z,8.63
2017-04-09T00:55:52.476Z,8.64
2017-04-09T00:55:56.914Z,8.63
2017-04-09T00:56:01.340Z,8.63
2017-04-09T00:56:05.765Z,8.63
2017-04-09T00:56:10.195Z,8.63
2017-04-09T00:56:14.652Z,8.63
2017-04-09T00:56:19.078Z,8.63
2017-04-09T00:56:23.508Z,8.63
2017-04-09T00:56:27.943Z,8.63
2017-04-09T00:56:32.370Z,8.63
2017-04-09T00:56:36.682Z,8.64
2017-04-09T00:56:41.111Z,8.64
2017-04-09T00:56:45.305Z,8.64
2017-04-09T00:56:49.619Z,8.63
2017-04-09T00:56:54.042Z,8.63
2017-04-09T00:56:58.470Z,8.63
2017-04-09T00:57:02.788Z,8.63
2017-04-09T00:57:07.097Z,8.63
2017-04-09T00:57:11.526Z,8.63
2017-04-09T00:57:15.960Z,8.63
2017-04-09T00:57:20.390Z,8.63
2017-04-09T00:57:24.811Z,8.63
2017-04-09T00:57:29.240Z,8.63
2017-04-09T00:57:33.708Z,8.63
2017-04-09T00:57:38.016Z,8.63
2017-04-09T00:57:42.328Z,8.63
2017-04-09T00:57:46.651Z,8.63
2017-04-09T00:57:51.089Z,8.63
2017-04-09T00:57:55.518Z,8.63
2017-04-09T00:57:59.831Z,8.64
2017-04-09T00:58:04.261Z,8.63
2017-04-09T00:58:08.571Z,8.63
2017-04-09T00:58:13.009Z,8.63
2017-04-09T00:58:17.446Z,8.62
2017-04-09T00:58:21.889Z,8.63
2017-04-09T00:58:26.315Z,8.63
2017-04-09T00:58:30.740Z,8.63
2017-04-09T00:58:35.179Z,8.63
2017-04-09T00:58:39.382Z,8.63